createdAt,value
2023-05-01T05:35:06.011Z,216.18
2023-05-01T05:37:32.790Z,294.58
2023-05-01T05:39:59.137Z,293.92
2023-05-01T05:42:25.478Z,295.40
2023-05-01T05:44:51.824Z,298.20
2023-05-01T05:47:18.176Z,297.33
2023-05-01T05:49:44.596Z,298.33
2023-05-01T05:52:10.946Z,301.58
2023-05-01T05:54:37.282Z,304.50
2023-05-01T05:57:03.682Z,307.42
2023-05-01T05:59:30.029Z,317.00
2023-05-01T06:01:56.380Z,319.08
2023-05-01T06:04:22.785Z,319.48
2023-05-01T06:06:49.235Z,319.60
2023-05-01T06:09:15.599Z,320.92
2023-05-01T06:11:41.971Z,318.75
2023-05-01T06:14:08.315Z,320.00
2023-05-01T06:16:34.783Z,321.77
2023-05-01T06:19:01.216Z,318.35
2023-05-01T06:21:27.593Z,320.67
2023-05-01T06:23:53.948Z,317.00
2023-05-01T06:26:20.316Z,318.65
2023-05-01T06:28:46.660Z,319.50
2023-05-01T06:31:13.037Z,318.33
2023-05-01T06:33:39.457Z,319.55
2023-05-01T06:36:05.957Z,320.00
2023-05-01T06:38:32.365Z,320.75
2023-05-01T06:40:58.903Z,316.47
2023-05-01T06:43:25.262Z,316.42
2023-05-01T06:45:51.617Z,313.03
2023-05-01T06:48:17.975Z,313.58
2023-05-01T06:50:44.328Z,310.75
2023-05-01T06:53:10.672Z,292.85
2023-05-01T06:55:37.012Z,200.25
2023-05-01T06:58:16.032Z,254.80
2023-05-01T07:00:48.698Z,213.88
2023-05-01T07:03:15.130Z,218.43
2023-05-01T07:05:41.533Z,212.27
2023-05-01T07:08:07.894Z,223.55
2023-05-01T07:10:34.251Z,224.05
2023-05-01T07:13:00.607Z,227.97
2023-05-01T07:15:26.967Z,214.23
2023-05-01T07:17:53.354Z,163.52
2023-05-01T07:20:19.882Z,185.70
2023-05-01T07:22:46.218Z,191.63
2023-05-01T07:25:12.567Z,170.87
2023-05-01T07:27:38.926Z,163.85
2023-05-01T07:30:06.062Z,155.23
2023-05-01T07:32:32.470Z,151.52
2023-05-01T07:34:58.916Z,147.07
2023-05-01T07:37:25.417Z,117.03
2023-05-01T07:39:51.758Z,102.97
2023-05-01T07:42:18.208Z,108.47
2023-05-01T07:44:44.627Z,75.90
2023-05-01T07:47:10.985Z,72.07
2023-05-01T07:49:37.754Z,62.63
2023-05-01T07:52:04.796Z,65.50
2023-05-01T07:54:31.132Z,64.38
2023-05-01T07:56:57.466Z,67.38
2023-05-01T07:59:23.834Z,70.03
2023-05-01T08:01:50.175Z,72.20
2023-05-01T08:06:43.048Z,78.55
